DLH900 EDDF-EGLL
Flight info
| Callsign | DLH900 |
|---|---|
| Flight time | 1h 11m |
| Altitude | 36000 |
| Route | OBOKA3W/25C OBOKA Z29 TORNU DCT ABNED L980 LOGAN |
| Aircraft | A320/M-SDE3FGHIRWY/LB1 |
Departure
| Time | 2026-05-06 13:55 |
|---|---|
| Airport | Frankfurt Main Airport (EDDF) |
Arrival
| Time | 2026-05-06 15:07 |
|---|---|
| Airport | London Heathrow Airport (EGLL) |
| Time | Latitude | Longitude | Altitude | Speed | Heading |
|---|---|---|---|---|---|
| 2026-05-06 13:00 | 50.04038 | 8.55548 | 358 ft | 0 kts | 160° |
| 2026-05-06 13:48 | 50.04034 | 8.55550 | 355 ft | 1 kts | 160° |
| 2026-05-06 13:48 | 50.04029 | 8.55553 | 353 ft | 5 kts | 160° |
| 2026-05-06 13:48 | 50.03975 | 8.55595 | 351 ft | 8 kts | 123° |
| 2026-05-06 13:48 | 50.03984 | 8.55679 | 353 ft | 7 kts | 69° |
| 2026-05-06 13:49 | 50.04010 | 8.55787 | 358 ft | 19 kts | 70° |
| 2026-05-06 13:49 | 50.04052 | 8.55973 | 351 ft | 17 kts | 71° |
| 2026-05-06 13:49 | 50.04092 | 8.56134 | 353 ft | 15 kts | 71° |
| 2026-05-06 13:49 | 50.04125 | 8.56272 | 356 ft | 12 kts | 68° |
| 2026-05-06 13:50 | 50.04153 | 8.56381 | 358 ft | 10 kts | 68° |
| 2026-05-06 13:50 | 50.04174 | 8.56466 | 357 ft | 7 kts | 72° |
| 2026-05-06 13:50 | 50.04189 | 8.56536 | 358 ft | 6 kts | 71° |
| 2026-05-06 13:50 | 50.04217 | 8.56655 | 359 ft | 15 kts | 69° |
| 2026-05-06 13:51 | 50.04249 | 8.56787 | 361 ft | 11 kts | 69° |
| 2026-05-06 13:51 | 50.04274 | 8.56894 | 363 ft | 13 kts | 69° |
| 2026-05-06 13:51 | 50.04329 | 8.57126 | 365 ft | 25 kts | 70° |
| 2026-05-06 13:51 | 50.04382 | 8.57346 | 361 ft | 20 kts | 69° |
| 2026-05-06 13:52 | 50.04421 | 8.57502 | 361 ft | 13 kts | 71° |
| 2026-05-06 13:52 | 50.04423 | 8.57600 | 364 ft | 5 kts | 110° |
| 2026-05-06 13:52 | 50.04413 | 8.57628 | 365 ft | 3 kts | 122° |
| 2026-05-06 13:52 | 50.04403 | 8.57645 | 366 ft | 2 kts | 139° |
| 2026-05-06 13:53 | 50.04395 | 8.57651 | 365 ft | 1 kts | 157° |
| 2026-05-06 13:53 | 50.04382 | 8.57657 | 365 ft | 9 kts | 161° |
| 2026-05-06 13:53 | 50.04289 | 8.57701 | 364 ft | 15 kts | 171° |
| 2026-05-06 13:53 | 50.04269 | 8.57661 | 363 ft | 0 kts | 245° |
| 2026-05-06 13:55 | 50.04245 | 8.57567 | 364 ft | 37 kts | 248° |
| 2026-05-06 13:55 | 50.04067 | 8.56832 | 364 ft | 106 kts | 250° |
| 2026-05-06 13:55 | 50.03739 | 8.55473 | 360 ft | 158 kts | 250° |
| 2026-05-06 13:55 | 50.03350 | 8.53857 | 997 ft | 159 kts | 248° |
| 2026-05-06 13:56 | 50.02946 | 8.52238 | 1766 ft | 165 kts | 249° |
| 2026-05-06 13:56 | 50.02514 | 8.50460 | 2140 ft | 185 kts | 244° |
| 2026-05-06 13:56 | 50.01652 | 8.48892 | 2621 ft | 201 kts | 217° |
| 2026-05-06 13:56 | 50.00366 | 8.47989 | 3386 ft | 206 kts | 193° |
| 2026-05-06 13:57 | 49.98953 | 8.47721 | 4308 ft | 204 kts | 189° |
| 2026-05-06 13:57 | 49.97535 | 8.47475 | 5103 ft | 206 kts | 189° |
| 2026-05-06 13:57 | 49.96107 | 8.47232 | 5896 ft | 208 kts | 194° |
| 2026-05-06 13:57 | 49.94689 | 8.46564 | 6401 ft | 224 kts | 199° |
| 2026-05-06 13:58 | 49.93151 | 8.45785 | 6948 ft | 237 kts | 200° |
| 2026-05-06 13:58 | 49.91682 | 8.44571 | 7712 ft | 242 kts | 219° |
| 2026-05-06 13:58 | 49.90527 | 8.42647 | 8531 ft | 247 kts | 237° |
| 2026-05-06 13:58 | 49.89705 | 8.40299 | 9450 ft | 249 kts | 241° |
| 2026-05-06 13:59 | 49.88962 | 8.37839 | 10201 ft | 255 kts | 251° |
| 2026-05-06 13:59 | 49.88635 | 8.35074 | 10736 ft | 272 kts | 268° |
| 2026-05-06 13:59 | 49.88745 | 8.32022 | 11034 ft | 296 kts | 272° |
| 2026-05-06 13:59 | 49.88957 | 8.28724 | 11325 ft | 319 kts | 280° |
| 2026-05-06 14:00 | 49.89717 | 8.25427 | 11951 ft | 331 kts | 296° |
| 2026-05-06 14:00 | 49.91023 | 8.22453 | 12701 ft | 337 kts | 304° |
| 2026-05-06 14:00 | 49.92431 | 8.19509 | 13502 ft | 341 kts | 304° |
| 2026-05-06 14:00 | 49.93875 | 8.16569 | 14217 ft | 345 kts | 309° |
| 2026-05-06 14:01 | 49.95618 | 8.13957 | 14856 ft | 352 kts | 317° |
| 2026-05-06 14:01 | 49.97490 | 8.11466 | 15501 ft | 357 kts | 316° |
| 2026-05-06 14:01 | 49.99393 | 8.08936 | 16143 ft | 361 kts | 317° |
| 2026-05-06 14:01 | 50.01309 | 8.06381 | 16779 ft | 366 kts | 317° |
| 2026-05-06 14:02 | 50.03226 | 8.03819 | 17407 ft | 370 kts | 317° |
| 2026-05-06 14:02 | 50.05215 | 8.01158 | 18032 ft | 375 kts | 317° |
| 2026-05-06 14:02 | 50.07203 | 7.98491 | 18573 ft | 379 kts | 316° |
| 2026-05-06 14:02 | 50.09180 | 7.95832 | 19174 ft | 381 kts | 317° |
| 2026-05-06 14:03 | 50.11192 | 7.93124 | 19634 ft | 383 kts | 316° |
| 2026-05-06 14:03 | 50.13207 | 7.90407 | 19763 ft | 383 kts | 316° |
| 2026-05-06 14:03 | 50.15222 | 7.87691 | 19799 ft | 382 kts | 316° |
| 2026-05-06 14:03 | 50.17226 | 7.84989 | 19805 ft | 380 kts | 316° |
| 2026-05-06 14:04 | 50.19227 | 7.82285 | 19802 ft | 380 kts | 316° |
| 2026-05-06 14:04 | 50.21220 | 7.79585 | 19805 ft | 378 kts | 315° |
| 2026-05-06 14:04 | 50.23200 | 7.76902 | 19803 ft | 377 kts | 315° |
| 2026-05-06 14:04 | 50.25252 | 7.74353 | 19802 ft | 379 kts | 323° |
| 2026-05-06 14:05 | 50.27572 | 7.72358 | 19813 ft | 383 kts | 333° |
| 2026-05-06 14:05 | 50.30016 | 7.70698 | 19814 ft | 383 kts | 333° |
| 2026-05-06 14:05 | 50.32461 | 7.69035 | 19813 ft | 383 kts | 333° |
| 2026-05-06 14:05 | 50.34908 | 7.67363 | 19816 ft | 384 kts | 333° |
| 2026-05-06 14:06 | 50.37370 | 7.65675 | 20316 ft | 387 kts | 333° |
| 2026-05-06 14:06 | 50.39846 | 7.63973 | 20966 ft | 389 kts | 333° |
| 2026-05-06 14:06 | 50.42334 | 7.62259 | 21551 ft | 393 kts | 332° |
| 2026-05-06 14:06 | 50.44841 | 7.60529 | 22144 ft | 396 kts | 332° |
| 2026-05-06 14:07 | 50.47371 | 7.58784 | 22734 ft | 398 kts | 332° |
| 2026-05-06 14:07 | 50.49922 | 7.57026 | 23295 ft | 401 kts | 332° |
| 2026-05-06 14:07 | 50.52483 | 7.55260 | 23772 ft | 404 kts | 332° |
| 2026-05-06 14:07 | 50.55067 | 7.53457 | 24230 ft | 406 kts | 330° |
| 2026-05-06 14:08 | 50.57512 | 7.51235 | 24669 ft | 406 kts | 323° |
| 2026-05-06 14:08 | 50.59882 | 7.48801 | 25093 ft | 409 kts | 323° |
| 2026-05-06 14:08 | 50.62275 | 7.46347 | 25523 ft | 412 kts | 324° |
| 2026-05-06 14:08 | 50.64684 | 7.43877 | 25905 ft | 415 kts | 326° |
| 2026-05-06 14:09 | 50.67117 | 7.41381 | 26261 ft | 419 kts | 326° |
| 2026-05-06 14:09 | 50.69576 | 7.38857 | 26612 ft | 423 kts | 326° |
| 2026-05-06 14:09 | 50.71994 | 7.36188 | 26988 ft | 425 kts | 319° |
| 2026-05-06 14:09 | 50.74127 | 7.32959 | 27336 ft | 427 kts | 310° |
| 2026-05-06 14:10 | 50.75909 | 7.29194 | 27721 ft | 428 kts | 300° |
| 2026-05-06 14:10 | 50.77329 | 7.25066 | 28086 ft | 430 kts | 296° |
| 2026-05-06 14:10 | 50.78700 | 7.20854 | 28475 ft | 432 kts | 296° |
| 2026-05-06 14:10 | 50.80078 | 7.16632 | 28837 ft | 434 kts | 296° |
| 2026-05-06 14:11 | 50.81465 | 7.12383 | 29195 ft | 435 kts | 297° |
| 2026-05-06 14:11 | 50.82855 | 7.08111 | 29547 ft | 438 kts | 296° |
| 2026-05-06 14:11 | 50.84233 | 7.03863 | 29867 ft | 440 kts | 296° |
| 2026-05-06 14:11 | 50.85627 | 6.99551 | 30189 ft | 441 kts | 296° |
| 2026-05-06 14:12 | 50.87021 | 6.95223 | 30491 ft | 442 kts | 296° |
| 2026-05-06 14:12 | 50.88419 | 6.90877 | 30765 ft | 443 kts | 295° |
| 2026-05-06 14:12 | 50.89822 | 6.86513 | 31053 ft | 445 kts | 296° |
| 2026-05-06 14:12 | 50.91228 | 6.82140 | 31322 ft | 446 kts | 295° |
| 2026-05-06 14:13 | 50.92631 | 6.77767 | 31688 ft | 445 kts | 295° |
| 2026-05-06 14:13 | 50.94027 | 6.73400 | 32056 ft | 444 kts | 295° |
| 2026-05-06 14:13 | 50.95420 | 6.69031 | 32419 ft | 443 kts | 295° |
| 2026-05-06 14:13 | 50.96804 | 6.64678 | 32788 ft | 442 kts | 295° |
| 2026-05-06 14:14 | 50.98186 | 6.60323 | 33177 ft | 441 kts | 295° |
| 2026-05-06 14:14 | 50.99567 | 6.55971 | 33477 ft | 443 kts | 295° |
| 2026-05-06 14:14 | 51.00953 | 6.51599 | 33802 ft | 443 kts | 295° |
| 2026-05-06 14:14 | 51.02337 | 6.47235 | 34106 ft | 443 kts | 295° |
| 2026-05-06 14:15 | 51.03719 | 6.42869 | 34390 ft | 442 kts | 294° |
| 2026-05-06 14:15 | 51.05098 | 6.38501 | 34655 ft | 442 kts | 294° |
| 2026-05-06 14:15 | 51.06472 | 6.34130 | 34917 ft | 442 kts | 294° |
| 2026-05-06 14:15 | 51.07844 | 6.29754 | 35161 ft | 442 kts | 294° |
| 2026-05-06 14:16 | 51.09213 | 6.25381 | 35412 ft | 441 kts | 294° |
| 2026-05-06 14:16 | 51.10579 | 6.21019 | 35654 ft | 441 kts | 294° |
| 2026-05-06 14:16 | 51.11951 | 6.16641 | 35834 ft | 442 kts | 294° |
| 2026-05-06 14:16 | 51.13312 | 6.12279 | 35865 ft | 438 kts | 292° |
| 2026-05-06 14:17 | 51.15139 | 6.03146 | 35866 ft | 432 kts | 282° |
| 2026-05-06 14:17 | 51.16630 | 5.93859 | 35864 ft | 432 kts | 282° |
| 2026-05-06 14:18 | 51.18138 | 5.84588 | 35867 ft | 433 kts | 284° |
| 2026-05-06 14:18 | 51.20380 | 5.75647 | 35879 ft | 435 kts | 290° |
| 2026-05-06 14:19 | 51.22726 | 5.66773 | 35886 ft | 434 kts | 290° |
| 2026-05-06 14:19 | 51.25056 | 5.57888 | 35886 ft | 434 kts | 290° |
| 2026-05-06 14:20 | 51.27379 | 5.48996 | 35890 ft | 434 kts | 290° |
| 2026-05-06 14:20 | 51.29698 | 5.40089 | 35892 ft | 434 kts | 290° |
| 2026-05-06 14:21 | 51.32016 | 5.31168 | 35895 ft | 434 kts | 290° |
| 2026-05-06 14:21 | 51.34327 | 5.22253 | 35907 ft | 434 kts | 290° |
| 2026-05-06 14:22 | 51.36632 | 5.13316 | 35906 ft | 434 kts | 290° |
| 2026-05-06 14:22 | 51.38927 | 5.04383 | 35906 ft | 434 kts | 290° |
| 2026-05-06 14:23 | 51.41217 | 4.95430 | 35905 ft | 434 kts | 290° |
| 2026-05-06 14:23 | 51.43480 | 4.86525 | 35905 ft | 434 kts | 290° |
| 2026-05-06 14:24 | 51.45750 | 4.77553 | 35918 ft | 434 kts | 290° |
| 2026-05-06 14:24 | 51.48024 | 4.68582 | 35911 ft | 434 kts | 290° |
| 2026-05-06 14:25 | 51.49921 | 4.61067 | 35914 ft | 433 kts | 290° |
| 2026-05-06 14:25 | 51.52173 | 4.52084 | 35914 ft | 433 kts | 290° |
| 2026-05-06 14:26 | 51.54409 | 4.43117 | 35912 ft | 433 kts | 290° |
| 2026-05-06 14:26 | 51.56628 | 4.34196 | 35910 ft | 432 kts | 290° |
| 2026-05-06 14:27 | 51.58852 | 4.25215 | 35908 ft | 432 kts | 290° |
| 2026-05-06 14:27 | 51.61084 | 4.16175 | 35906 ft | 432 kts | 290° |
| 2026-05-06 14:28 | 51.63286 | 4.07246 | 35906 ft | 432 kts | 290° |
| 2026-05-06 14:28 | 51.65493 | 3.98246 | 35909 ft | 432 kts | 289° |
| 2026-05-06 14:29 | 51.67684 | 3.89246 | 35909 ft | 432 kts | 289° |
| 2026-05-06 14:29 | 51.69871 | 3.80248 | 35926 ft | 431 kts | 290° |
| 2026-05-06 14:30 | 51.72041 | 3.71252 | 35927 ft | 430 kts | 289° |
| 2026-05-06 14:30 | 51.74198 | 3.62268 | 35938 ft | 429 kts | 289° |
| 2026-05-06 14:31 | 51.76356 | 3.53297 | 35937 ft | 429 kts | 288° |
| 2026-05-06 14:31 | 51.78501 | 3.44321 | 35940 ft | 428 kts | 289° |
| 2026-05-06 14:32 | 51.80634 | 3.35348 | 35944 ft | 428 kts | 289° |
| 2026-05-06 14:32 | 51.82753 | 3.26373 | 35962 ft | 427 kts | 289° |
| 2026-05-06 14:33 | 51.84413 | 3.17222 | 35958 ft | 423 kts | 275° |
| 2026-05-06 14:33 | 51.84310 | 3.07787 | 35953 ft | 420 kts | 263° |
| 2026-05-06 14:34 | 51.83689 | 2.98387 | 35678 ft | 420 kts | 263° |
| 2026-05-06 14:34 | 51.83384 | 2.93694 | 35430 ft | 420 kts | 263° |
| 2026-05-06 14:34 | 51.83079 | 2.89015 | 35188 ft | 418 kts | 263° |
| 2026-05-06 14:35 | 51.82772 | 2.84348 | 34943 ft | 416 kts | 263° |
| 2026-05-06 14:35 | 51.82463 | 2.79705 | 34702 ft | 413 kts | 263° |
| 2026-05-06 14:35 | 51.82154 | 2.75101 | 34462 ft | 411 kts | 263° |
| 2026-05-06 14:35 | 51.81844 | 2.70510 | 34235 ft | 410 kts | 263° |
| 2026-05-06 14:36 | 51.81533 | 2.65939 | 33992 ft | 408 kts | 263° |
| 2026-05-06 14:36 | 51.81220 | 2.61392 | 33718 ft | 405 kts | 263° |
| 2026-05-06 14:36 | 51.80907 | 2.56887 | 33436 ft | 402 kts | 263° |
| 2026-05-06 14:36 | 51.80594 | 2.52402 | 33169 ft | 401 kts | 262° |
| 2026-05-06 14:37 | 51.80280 | 2.47929 | 32893 ft | 401 kts | 262° |
| 2026-05-06 14:37 | 51.79970 | 2.43539 | 32624 ft | 398 kts | 263° |
| 2026-05-06 14:37 | 51.79657 | 2.39117 | 32359 ft | 395 kts | 263° |
| 2026-05-06 14:37 | 51.79346 | 2.34717 | 32094 ft | 393 kts | 262° |
| 2026-05-06 14:38 | 51.79034 | 2.30338 | 31833 ft | 392 kts | 262° |
| 2026-05-06 14:38 | 51.78722 | 2.25979 | 31567 ft | 390 kts | 262° |
| 2026-05-06 14:38 | 51.78408 | 2.21635 | 31308 ft | 389 kts | 262° |
| 2026-05-06 14:38 | 51.78123 | 2.17306 | 31048 ft | 386 kts | 263° |
| 2026-05-06 14:39 | 51.77870 | 2.13018 | 30626 ft | 382 kts | 264° |
| 2026-05-06 14:39 | 51.77632 | 2.08757 | 30154 ft | 380 kts | 264° |
| 2026-05-06 14:39 | 51.77400 | 2.04531 | 29642 ft | 377 kts | 264° |
| 2026-05-06 14:39 | 51.77165 | 2.00336 | 29188 ft | 373 kts | 263° |
| 2026-05-06 14:40 | 51.76923 | 1.96199 | 28751 ft | 368 kts | 263° |
| 2026-05-06 14:40 | 51.76678 | 1.92105 | 28321 ft | 364 kts | 263° |
| 2026-05-06 14:40 | 51.76432 | 1.88045 | 27900 ft | 361 kts | 263° |
| 2026-05-06 14:40 | 51.76187 | 1.84036 | 27468 ft | 357 kts | 263° |
| 2026-05-06 14:41 | 51.75941 | 1.80072 | 27050 ft | 353 kts | 263° |
| 2026-05-06 14:41 | 51.75697 | 1.76159 | 26619 ft | 350 kts | 263° |
| 2026-05-06 14:41 | 51.75455 | 1.72281 | 26205 ft | 347 kts | 263° |
| 2026-05-06 14:41 | 51.75211 | 1.68457 | 25797 ft | 343 kts | 263° |
| 2026-05-06 14:42 | 51.74970 | 1.64694 | 25364 ft | 341 kts | 263° |
| 2026-05-06 14:42 | 51.74730 | 1.60894 | 24933 ft | 339 kts | 263° |
| 2026-05-06 14:42 | 51.74494 | 1.57100 | 24421 ft | 343 kts | 263° |
| 2026-05-06 14:42 | 51.74256 | 1.53265 | 23896 ft | 344 kts | 263° |
| 2026-05-06 14:43 | 51.74014 | 1.49424 | 23354 ft | 344 kts | 263° |
| 2026-05-06 14:43 | 51.73767 | 1.45590 | 22795 ft | 343 kts | 263° |
| 2026-05-06 14:43 | 51.73516 | 1.41768 | 22290 ft | 342 kts | 264° |
| 2026-05-06 14:43 | 51.73265 | 1.37965 | 21785 ft | 341 kts | 264° |
| 2026-05-06 14:44 | 51.73016 | 1.34179 | 21280 ft | 340 kts | 264° |
| 2026-05-06 14:44 | 51.72768 | 1.30386 | 20769 ft | 340 kts | 264° |
| 2026-05-06 14:44 | 51.72523 | 1.26649 | 20267 ft | 339 kts | 264° |
| 2026-05-06 14:45 | 51.72026 | 1.19080 | 19248 ft | 340 kts | 264° |
| 2026-05-06 14:45 | 51.71771 | 1.15283 | 18736 ft | 340 kts | 264° |
| 2026-05-06 14:45 | 51.71513 | 1.11489 | 18224 ft | 341 kts | 264° |
| 2026-05-06 14:45 | 51.71252 | 1.07689 | 17667 ft | 341 kts | 264° |
| 2026-05-06 14:46 | 51.70991 | 1.03913 | 17228 ft | 338 kts | 264° |
| 2026-05-06 14:46 | 51.70731 | 1.00148 | 16784 ft | 335 kts | 264° |
| 2026-05-06 14:46 | 51.70475 | 0.96415 | 16281 ft | 334 kts | 264° |
| 2026-05-06 14:46 | 51.70223 | 0.92746 | 15829 ft | 324 kts | 264° |
| 2026-05-06 14:47 | 51.69975 | 0.89158 | 15261 ft | 320 kts | 264° |
| 2026-05-06 14:47 | 51.69728 | 0.85595 | 14821 ft | 320 kts | 264° |
| 2026-05-06 14:47 | 51.69480 | 0.82034 | 14393 ft | 319 kts | 264° |
| 2026-05-06 14:47 | 51.69230 | 0.78481 | 13957 ft | 318 kts | 265° |
| 2026-05-06 14:48 | 51.68980 | 0.74944 | 13535 ft | 316 kts | 265° |
| 2026-05-06 14:48 | 51.68730 | 0.71423 | 13077 ft | 315 kts | 265° |
| 2026-05-06 14:48 | 51.68482 | 0.67931 | 12642 ft | 313 kts | 265° |
| 2026-05-06 14:48 | 51.68235 | 0.64461 | 12216 ft | 310 kts | 264° |
| 2026-05-06 14:49 | 51.67990 | 0.61018 | 11798 ft | 309 kts | 264° |
| 2026-05-06 14:49 | 51.67742 | 0.57587 | 11381 ft | 307 kts | 265° |
| 2026-05-06 14:49 | 51.67496 | 0.54222 | 11181 ft | 296 kts | 265° |
| 2026-05-06 14:49 | 51.67256 | 0.51007 | 10702 ft | 285 kts | 264° |
| 2026-05-06 14:50 | 51.67023 | 0.47825 | 10251 ft | 286 kts | 265° |
| 2026-05-06 14:50 | 51.66792 | 0.44639 | 9852 ft | 286 kts | 266° |
| 2026-05-06 14:50 | 51.66561 | 0.41458 | 9412 ft | 285 kts | 266° |
| 2026-05-06 14:50 | 51.66332 | 0.38309 | 9020 ft | 283 kts | 265° |
| 2026-05-06 14:51 | 51.66102 | 0.35171 | 8628 ft | 281 kts | 265° |
| 2026-05-06 14:51 | 51.65870 | 0.32057 | 8262 ft | 279 kts | 264° |
| 2026-05-06 14:51 | 51.65637 | 0.28980 | 8000 ft | 275 kts | 265° |
| 2026-05-06 14:51 | 51.65406 | 0.25923 | 7995 ft | 276 kts | 266° |
| 2026-05-06 14:52 | 51.65176 | 0.22861 | 7994 ft | 270 kts | 265° |
| 2026-05-06 14:52 | 51.64970 | 0.19923 | 8001 ft | 267 kts | 265° |
| 2026-05-06 14:52 | 51.64795 | 0.16881 | 8002 ft | 275 kts | 266° |
| 2026-05-06 14:52 | 51.64618 | 0.13802 | 8001 ft | 277 kts | 267° |
| 2026-05-06 14:53 | 51.64430 | 0.10761 | 8000 ft | 277 kts | 266° |
| 2026-05-06 14:53 | 51.64242 | 0.07672 | 8002 ft | 277 kts | 266° |
| 2026-05-06 14:53 | 51.64047 | 0.04581 | 8001 ft | 277 kts | 266° |
| 2026-05-06 14:53 | 51.63844 | 0.01501 | 8000 ft | 277 kts | 267° |
| 2026-05-06 14:54 | 51.63655 | -0.01587 | 8039 ft | 276 kts | 267° |
| 2026-05-06 14:54 | 51.63452 | -0.04654 | 8038 ft | 275 kts | 265° |
| 2026-05-06 14:54 | 51.63265 | -0.07720 | 8046 ft | 275 kts | 266° |
| 2026-05-06 14:54 | 51.63072 | -0.10784 | 8045 ft | 275 kts | 266° |
| 2026-05-06 14:55 | 51.62863 | -0.13839 | 8053 ft | 275 kts | 266° |
| 2026-05-06 14:55 | 51.62656 | -0.16893 | 8054 ft | 274 kts | 266° |
| 2026-05-06 14:55 | 51.62436 | -0.19935 | 8056 ft | 274 kts | 266° |
| 2026-05-06 14:55 | 51.62224 | -0.22984 | 8056 ft | 275 kts | 266° |
| 2026-05-06 14:56 | 51.62015 | -0.26042 | 8057 ft | 274 kts | 265° |
| 2026-05-06 14:56 | 51.61812 | -0.29100 | 8057 ft | 275 kts | 266° |
| 2026-05-06 14:56 | 51.61619 | -0.32160 | 7999 ft | 275 kts | 266° |
| 2026-05-06 14:56 | 51.61418 | -0.35216 | 8003 ft | 274 kts | 266° |
| 2026-05-06 14:57 | 51.61213 | -0.38267 | 8000 ft | 275 kts | 265° |
| 2026-05-06 14:57 | 51.61003 | -0.41316 | 8003 ft | 274 kts | 266° |
| 2026-05-06 14:57 | 51.60775 | -0.44358 | 8000 ft | 274 kts | 265° |
| 2026-05-06 14:57 | 51.60564 | -0.47406 | 8001 ft | 275 kts | 266° |
| 2026-05-06 14:58 | 51.60350 | -0.50469 | 8000 ft | 275 kts | 265° |
| 2026-05-06 14:58 | 51.60151 | -0.53529 | 7971 ft | 275 kts | 266° |
| 2026-05-06 14:58 | 51.59950 | -0.56584 | 7535 ft | 276 kts | 266° |
| 2026-05-06 14:58 | 51.59740 | -0.59666 | 7047 ft | 278 kts | 265° |
| 2026-05-06 14:59 | 51.59540 | -0.62734 | 6699 ft | 275 kts | 266° |
| 2026-05-06 14:59 | 51.59336 | -0.65776 | 6342 ft | 272 kts | 266° |
| 2026-05-06 14:59 | 51.59125 | -0.68791 | 5964 ft | 271 kts | 265° |
| 2026-05-06 14:59 | 51.58933 | -0.71757 | 5570 ft | 269 kts | 267° |
| 2026-05-06 15:00 | 51.58730 | -0.74743 | 5181 ft | 268 kts | 265° |
| 2026-05-06 15:00 | 51.58543 | -0.77741 | 4786 ft | 265 kts | 266° |
| 2026-05-06 15:00 | 51.58354 | -0.80673 | 4388 ft | 263 kts | 266° |
| 2026-05-06 15:00 | 51.57963 | -0.83491 | 3999 ft | 263 kts | 246° |
| 2026-05-06 15:01 | 51.56817 | -0.85764 | 3610 ft | 266 kts | 217° |
| 2026-05-06 15:01 | 51.55126 | -0.86881 | 3219 ft | 265 kts | 188° |
| 2026-05-06 15:01 | 51.53307 | -0.87102 | 2997 ft | 259 kts | 181° |
| 2026-05-06 15:01 | 51.51492 | -0.87191 | 2994 ft | 263 kts | 181° |
| 2026-05-06 15:02 | 51.49670 | -0.87253 | 2995 ft | 262 kts | 181° |
| 2026-05-06 15:02 | 51.47855 | -0.87259 | 2993 ft | 260 kts | 173° |
| 2026-05-06 15:02 | 51.46191 | -0.86273 | 2998 ft | 256 kts | 142° |
| 2026-05-06 15:02 | 51.45075 | -0.84132 | 2996 ft | 251 kts | 111° |
| 2026-05-06 15:03 | 51.44793 | -0.81439 | 2996 ft | 245 kts | 78° |
| 2026-05-06 15:03 | 51.45432 | -0.78975 | 2999 ft | 240 kts | 55° |
| 2026-05-06 15:03 | 51.46288 | -0.76681 | 3004 ft | 240 kts | 57° |
| 2026-05-06 15:03 | 51.47132 | -0.74364 | 3004 ft | 241 kts | 60° |
| 2026-05-06 15:04 | 51.47606 | -0.71760 | 2928 ft | 247 kts | 80° |
| 2026-05-06 15:04 | 51.47678 | -0.69018 | 2654 ft | 245 kts | 87° |
| 2026-05-06 15:04 | 51.47669 | -0.66344 | 2339 ft | 233 kts | 87° |
| 2026-05-06 15:04 | 51.47674 | -0.63796 | 2028 ft | 224 kts | 85° |
| 2026-05-06 15:05 | 51.47686 | -0.61362 | 1729 ft | 209 kts | 86° |
| 2026-05-06 15:05 | 51.47696 | -0.59146 | 1483 ft | 188 kts | 85° |
| 2026-05-06 15:05 | 51.47706 | -0.57169 | 1231 ft | 166 kts | 87° |
| 2026-05-06 15:05 | 51.47714 | -0.55431 | 993 ft | 148 kts | 84° |
| 2026-05-06 15:06 | 51.47722 | -0.53838 | 788 ft | 138 kts | 86° |
| 2026-05-06 15:06 | 51.47730 | -0.52316 | 602 ft | 137 kts | 85° |
| 2026-05-06 15:06 | 51.47728 | -0.50801 | 393 ft | 134 kts | 84° |
| 2026-05-06 15:06 | 51.47737 | -0.49296 | 213 ft | 136 kts | 81° |
| 2026-05-06 15:07 | 51.47763 | -0.47815 | 115 ft | 124 kts | 85° |
| 2026-05-06 15:07 | 51.47768 | -0.46667 | 93 ft | 66 kts | 93° |
| 2026-05-06 15:07 | 51.47757 | -0.46284 | 90 ft | 19 kts | 91° |
| 2026-05-06 15:07 | 51.47688 | -0.46127 | 87 ft | 18 kts | 142° |
| 2026-05-06 15:08 | 51.47644 | -0.46076 | 87 ft | 0 kts | 146° |
| 2026-05-06 15:08 | 51.47626 | -0.46057 | 87 ft | 4 kts | 144° |
| 2026-05-06 15:08 | 51.47609 | -0.46032 | 90 ft | 3 kts | 130° |
| 2026-05-06 15:09 | 51.47602 | -0.46009 | 86 ft | 2 kts | 117° |
| 2026-05-06 15:09 | 51.47596 | -0.45980 | 87 ft | 3 kts | 102° |
| 2026-05-06 15:09 | 51.47595 | -0.45947 | 89 ft | 11 kts | 88° |
| 2026-05-06 15:09 | 51.47597 | -0.45834 | 88 ft | 8 kts | 81° |
| 2026-05-06 15:10 | 51.47593 | -0.45725 | 89 ft | 7 kts | 97° |
| 2026-05-06 15:10 | 51.47597 | -0.45679 | 89 ft | 6 kts | 86° |
| 2026-05-06 15:10 | 51.47599 | -0.45600 | 86 ft | 5 kts | 88° |
| 2026-05-06 15:10 | 51.47600 | -0.45548 | 86 ft | 4 kts | 88° |
| 2026-05-06 15:11 | 51.47600 | -0.45494 | 86 ft | 10 kts | 92° |
| 2026-05-06 15:11 | 51.47597 | -0.45393 | 86 ft | 9 kts | 91° |
| 2026-05-06 15:11 | 51.47598 | -0.45304 | 86 ft | 8 kts | 89° |
| 2026-05-06 15:11 | 51.47598 | -0.45225 | 86 ft | 7 kts | 89° |
| 2026-05-06 15:12 | 51.47598 | -0.45155 | 86 ft | 6 kts | 89° |
| 2026-05-06 15:12 | 51.47600 | -0.44964 | 86 ft | 29 kts | 89° |
| 2026-05-06 15:12 | 51.47563 | -0.44682 | 87 ft | 27 kts | 152° |
| 2026-05-06 15:12 | 51.47423 | -0.44561 | 86 ft | 18 kts | 213° |
| 2026-05-06 15:13 | 51.47339 | -0.44562 | 89 ft | 12 kts | 171° |
| 2026-05-06 15:13 | 51.47229 | -0.44556 | 86 ft | 27 kts | 179° |
| 2026-05-06 15:13 | 51.47023 | -0.44555 | 86 ft | 30 kts | 180° |
| 2026-05-06 15:13 | 51.46855 | -0.44555 | 86 ft | 20 kts | 181° |
| 2026-05-06 15:14 | 51.46759 | -0.44607 | 89 ft | 14 kts | 255° |
| 2026-05-06 15:14 | 51.46753 | -0.44759 | 86 ft | 14 kts | 269° |
| 2026-05-06 15:14 | 51.46751 | -0.44906 | 86 ft | 13 kts | 269° |
| 2026-05-06 15:14 | 51.46751 | -0.45025 | 86 ft | 8 kts | 270° |
| 2026-05-06 15:15 | 51.46779 | -0.45045 | 86 ft | 5 kts | 1° |
| 2026-05-06 15:15 | 51.46815 | -0.45043 | 86 ft | 6 kts | 2° |
| 2026-05-06 15:15 | 51.46829 | -0.45043 | 86 ft | 0 kts | 0° |